Heidrick, KY (40949)

2:42 PM EDT on August 31, 2015 (GMT -0400)
liford's | | Change Station
CLOSE
Current Station
Personal Weather Station
Location: Barbourville, KY
Elevation: 1066 ft
Nearby Weather Stations

Elev 1066 ft 36.84 °N, 83.85 °W | Updated 11 minutes ago

Clear
Clear
88.0 °F
Feels Like 92 °F
N
0.0
Wind Variable Wind from NE

Today
High -- | Low -- °F
--% Chance of Precip.
Yesterday
High -- | Low -- °F
Precip. -- in
7:05 AM 8:05 PM
Waning Gibbous, 94% visible
Pressure 30.11 in
Visibility 10.0 miles
Clouds Few 3700 ft
Heat Index 92 °F
Dew Point 69 °F
Humidity 53%
Rainfall 0.00 in
Snow Depth Not available.
UV 9 out of 12
Pollen 8.80 out of 12
Air Quality Not available.
Flu Activity Not available.
METAR KLOZ 311753Z AUTO 08007KT 040V110 10SM FEW037 29/17 A3015 RMK AO2 SLP196 T02940167 10294 20189 58009
Pressure 30.11 in
Visibility 10.0 miles
Clouds Few 3700 ft
Heat Index 92 °F
Dew Point 69 °F
Humidity 53%
Rainfall 0.00 in
Snow Depth Not available.
UV 9 out of 12
Pollen 8.80 out of 12
Air Quality Not available.
Flu Activity Not available.
METAR KLOZ 311753Z AUTO 08007KT 040V110 10SM FEW037 29/17 A3015 RMK AO2 SLP196 T02940167 10294 20189 58009

10-Day Weather Forecast

×

Almanac

Astronomy

Aug. 31, 2015 Rise Set
Actual Time
Civil Twilight
Nautical Twilight
Astronomical Twilight
Moon
Length of Visible Light
Length of Day
Tomorrow will be .
, % of the Moon is Illuminated

Today's Extremes

State Highs State Lows

Community

WunderPhotos

Upload Photos

1,851,334 photos uploaded!

WunderBlogs® & News

Nearby

Air Quality

  Air Quality AQ Index Pollutant
Not available.

Snow Depth

Station Depth Elevation

Earthquake Activity

City Distance Mag. Time & Date
Minimum magnitude displayed is 2.5.

Coastal Water Temperatures

Place Temperature

Stations

Nearby Weather Stations

Station Location Temp. Windchill Dew Point Humidity Wind Precip. Elev Updated Type